Cassopolis, MI (49031)

6:16 AM EDT on September 05, 2015 (GMT -0400)
Cass County | | Change Station
CLOSE
Current Station
Personal Weather Station
Location: Cassopolis, MI
Elevation: 879 ft
Nearby Weather Stations

Elev 879 ft 41.88 °N, 86.04 °W | Updated 1 second ago

Partly Cloudy
Partly Cloudy
67.8 °F
Feels Like 67.8 °F
N
0.0
Wind Variable Wind from South
Gusts 0.0 mph

Today
High -- | Low -- °F
--% Chance of Precip.
Yesterday
High -- | Low -- °F
Precip. -- in
7:13 AM 8:11 PM
Waning Gibbous, 50% visible
Pressure 30.10 in
Visibility 10.0 miles
Clouds Scattered Clouds 5000 ft
Scattered Clouds 10000 ft
Dew Point 64 °F
Humidity 88%
Rainfall 0.00 in
Snow Depth Not available.
UV 0 out of 12
Pollen 9.10 out of 12
Air Quality Not available.
Flu Activity Not available.
METAR KHAI 050955Z AUTO 00000KT 10SM SCT050 SCT100 20/19 A3010 RMK AO2 T01960190
Pressure 30.10 in
Visibility 10.0 miles
Clouds Scattered Clouds 5000 ft
Scattered Clouds 10000 ft
Dew Point 64 °F
Humidity 88%
Rainfall 0.00 in
Snow Depth Not available.
UV 0 out of 12
Pollen 9.10 out of 12
Air Quality Not available.
Flu Activity Not available.
METAR KHAI 050955Z AUTO 00000KT 10SM SCT050 SCT100 20/19 A3010 RMK AO2 T01960190

10-Day Weather Forecast

×

Almanac

Astronomy

Sep. 05, 2015 Rise Set
Actual Time
Civil Twilight
Nautical Twilight
Astronomical Twilight
Moon
Length of Visible Light
Length of Day
Tomorrow will be .
, % of the Moon is Illuminated

Today's Extremes

State Highs State Lows

Community

WunderPhotos

Upload Photos

1,852,440 photos uploaded!

WunderBlogs® & News

Nearby

Air Quality

  Air Quality AQ Index Pollutant
Not available.

Snow Depth

Station Depth Elevation

Earthquake Activity

City Distance Mag. Time & Date
Minimum magnitude displayed is 2.5.

Coastal Water Temperatures

Place Temperature

Stations

Nearby Weather Stations

Station Location Temp. Windchill Dew Point Humidity Wind Precip. Elev Updated Type